sensor_id;sensor_type;location;lat;lon;timestamp;pressure;altitude;pressure_sealevel;temperature;humidity
62152;BME280;48139;47.474;19.034;2023-02-02T04:42:20;100163.84;;;2.96;100.00
62152;BME280;48139;47.474;19.034;2023-02-02T04:45:24;100163.84;;;2.96;100.00
62152;BME280;48139;47.474;19.034;2023-02-02T04:48:27;100162.06;;;2.52;100.00
62152;BME280;48139;47.474;19.034;2023-02-02T04:51:30;100162.84;;;2.57;100.00
62152;BME280;48139;47.474;19.034;2023-02-02T04:54:32;100164.56;;;2.57;100.00
62152;BME280;48139;47.474;19.034;2023-02-02T04:57:35;100149.84;;;2.62;100.00
62152;BME280;48139;47.474;19.034;2023-02-02T05:00:37;100154.19;;;2.60;100.00
62152;BME280;48139;47.474;19.034;2023-02-02T05:03:40;100169.63;;;2.64;100.00
62152;BME280;48139;47.474;19.034;2023-02-02T05:06:43;100148.03;;;2.67;100.00
62152;BME280;48139;47.474;19.034;2023-02-02T05:09:46;100150.59;;;2.68;100.00
62152;BME280;48139;47.474;19.034;2023-02-02T05:12:51;100159.03;;;2.78;100.00
62152;BME280;48139;47.474;19.034;2023-02-02T05:15:54;100164.25;;;2.75;100.00
62152;BME280;48139;47.474;19.034;2023-02-02T05:18:57;100167.03;;;2.63;100.00
62152;BME280;48139;47.474;19.034;2023-02-02T05:22:01;100189.53;;;2.59;100.00
62152;BME280;48139;47.474;19.034;2023-02-02T05:25:04;100206.94;;;2.50;100.00
62152;BME280;48139;47.474;19.034;2023-02-02T05:28:08;100200.97;;;2.44;100.00
62152;BME280;48139;47.474;19.034;2023-02-02T05:31:10;100213.66;;;2.60;100.00
62152;BME280;48139;47.474;19.034;2023-02-02T05:34:13;100234.44;;;2.54;100.00
62152;BME280;48139;47.474;19.034;2023-02-02T05:37:16;100241.09;;;2.68;100.00
62152;BME280;48139;47.474;19.034;2023-02-02T05:40:19;100246.22;;;2.71;100.00
62152;BME280;48139;47.474;19.034;2023-02-02T05:43:26;100245.69;;;2.51;100.00
62152;BME280;48139;47.474;19.034;2023-02-02T05:46:29;100244.00;;;2.49;100.00
62152;BME280;48139;47.474;19.034;2023-02-02T05:49:32;100259.53;;;2.49;100.00
62152;BME280;48139;47.474;19.034;2023-02-02T05:52:35;100260.38;;;2.49;100.00
62152;BME280;48139;47.474;19.034;2023-02-02T05:55:38;100272.25;;;2.62;100.00
62152;BME280;48139;47.474;19.034;2023-02-02T05:58:42;100286.03;;;2.61;100.00
62152;BME280;48139;47.474;19.034;2023-02-02T06:01:46;100292.22;;;2.51;100.00
62152;BME280;48139;47.474;19.034;2023-02-02T06:04:49;100289.78;;;2.43;100.00
62152;BME280;48139;47.474;19.034;2023-02-02T06:07:51;100282.81;;;2.46;100.00
62152;BME280;48139;47.474;19.034;2023-02-02T06:10:54;100276.00;;;2.41;100.00
62152;BME280;48139;47.474;19.034;2023-02-02T06:13:56;100276.84;;;2.43;100.00
62152;BME280;48139;47.474;19.034;2023-02-02T06:16:59;100274.09;;;2.54;100.00
62152;BME280;48139;47.474;19.034;2023-02-02T06:20:03;100255.22;;;2.49;100.00
62152;BME280;48139;47.474;19.034;2023-02-02T06:23:06;100245.75;;;2.48;100.00
62152;BME280;48139;47.474;19.034;2023-02-02T06:26:09;100241.47;;;2.46;100.00
62152;BME280;48139;47.474;19.034;2023-02-02T06:29:12;100258.69;;;2.47;100.00
62152;BME280;48139;47.474;19.034;2023-02-02T06:32:15;100260.41;;;2.46;100.00
62152;BME280;48139;47.474;19.034;2023-02-02T06:35:18;100251.81;;;2.44;100.00
62152;BME280;48139;47.474;19.034;2023-02-02T06:38:20;100247.37;;;2.52;100.00
62152;BME280;48139;47.474;19.034;2023-02-02T06:41:24;100231.88;;;2.54;100.00
62152;BME280;48139;47.474;19.034;2023-02-02T06:44:27;100250.75;;;2.57;100.00
62152;BME280;48139;47.474;19.034;2023-02-02T06:47:32;100253.41;;;2.54;100.00
62152;BME280;48139;47.474;19.034;2023-02-02T06:50:34;100236.06;;;2.59;100.00
62152;BME280;48139;47.474;19.034;2023-02-02T06:53:37;100250.72;;;2.60;100.00
62152;BME280;48139;47.474;19.034;2023-02-02T06:56:39;100240.28;;;2.66;100.00
62152;BME280;48139;47.474;19.034;2023-02-02T06:59:42;100242.78;;;2.69;100.00
62152;BME280;48139;47.474;19.034;2023-02-02T07:02:45;100243.59;;;2.73;100.00
62152;BME280;48139;47.474;19.034;2023-02-02T07:05:48;100253.03;;;2.75;100.00
62152;BME280;48139;47.474;19.034;2023-02-02T07:08:51;100257.31;;;2.76;100.00
62152;BME280;48139;47.474;19.034;2023-02-02T07:12:04;100265.03;;;2.81;100.00
62152;BME280;48139;47.474;19.034;2023-02-02T07:15:07;100262.34;;;2.87;100.00
62152;BME280;48139;47.474;19.034;2023-02-02T07:18:10;100274.25;;;2.94;100.00
62152;BME280;48139;47.474;19.034;2023-02-02T07:21:18;100279.41;;;2.97;100.00
62152;BME280;48139;47.474;19.034;2023-02-02T07:24:21;100277.66;;;2.99;100.00
62152;BME280;48139;47.474;19.034;2023-02-02T07:27:24;100286.16;;;3.06;100.00
62152;BME280;48139;47.474;19.034;2023-02-02T07:30:27;100302.41;;;3.12;100.00
62152;BME280;48139;47.474;19.034;2023-02-02T07:33:31;100327.41;;;3.13;100.00
62152;BME280;48139;47.474;19.034;2023-02-02T07:36:34;100343.41;;;3.35;100.00
62152;BME280;48139;47.474;19.034;2023-02-02T07:39:36;100345.78;;;3.47;100.00
62152;BME280;48139;47.474;19.034;2023-02-02T07:42:41;100339.53;;;3.57;100.00
62152;BME280;48139;47.474;19.034;2023-02-02T07:45:48;100357.38;;;3.74;100.00
62152;BME280;48139;47.474;19.034;2023-02-02T07:48:54;100356.28;;;3.86;100.00
62152;BME280;48139;47.474;19.034;2023-02-02T07:51:57;100358.78;;;3.89;100.00
62152;BME280;48139;47.474;19.034;2023-02-02T07:55:00;100342.09;;;4.03;100.00
62152;BME280;48139;47.474;19.034;2023-02-02T07:58:15;100357.69;;;4.00;100.00
62152;BME280;48139;47.474;19.034;2023-02-02T08:01:18;100337.50;;;4.16;100.00
62152;BME280;48139;47.474;19.034;2023-02-02T08:04:24;100345.91;;;4.26;100.00
62152;BME280;48139;47.474;19.034;2023-02-02T08:07:27;100334.63;;;4.30;100.00
62152;BME280;48139;47.474;19.034;2023-02-02T08:10:29;100337.78;;;4.42;100.00
62152;BME280;48139;47.474;19.034;2023-02-02T08:13:32;100350.62;;;4.49;100.00
62152;BME280;48139;47.474;19.034;2023-02-02T08:16:35;100348.69;;;4.57;100.00
62152;BME280;48139;47.474;19.034;2023-02-02T08:19:37;100350.16;;;4.68;100.00
62152;BME280;48139;47.474;19.034;2023-02-02T08:22:40;100355.97;;;4.78;100.00
62152;BME280;48139;47.474;19.034;2023-02-02T08:25:43;100341.69;;;4.97;100.00
62152;BME280;48139;47.474;19.034;2023-02-02T08:28:50;100348.72;;;5.26;100.00
62152;BME280;48139;47.474;19.034;2023-02-02T08:31:54;100348.75;;;5.58;99.35
62152;BME280;48139;47.474;19.034;2023-02-02T08:34:57;100339.41;;;5.82;97.18
62152;BME280;48139;47.474;19.034;2023-02-02T08:37:59;100341.63;;;5.97;94.26
62152;BME280;48139;47.474;19.034;2023-02-02T08:41:08;100330.72;;;6.14;93.64
62152;BME280;48139;47.474;19.034;2023-02-02T08:44:14;100326.88;;;6.27;90.18
62152;BME280;48139;47.474;19.034;2023-02-02T08:47:17;100314.84;;;6.51;87.26
62152;BME280;48139;47.474;19.034;2023-02-02T08:50:20;100324.22;;;7.11;82.79
62152;BME280;48139;47.474;19.034;2023-02-02T08:53:23;100323.91;;;8.39;75.83
62152;BME280;48139;47.474;19.034;2023-02-02T08:56:26;100323.81;;;8.86;64.04
62152;BME280;48139;47.474;19.034;2023-02-02T08:59:29;100338.59;;;7.95;69.37
62152;BME280;48139;47.474;19.034;2023-02-02T09:02:31;100340.03;;;7.81;71.20
62152;BME280;48139;47.474;19.034;2023-02-02T09:05:34;100337.72;;;7.72;69.89
62152;BME280;48139;47.474;19.034;2023-02-02T09:08:40;100342.09;;;7.21;73.04
62152;BME280;48139;47.474;19.034;2023-02-02T09:11:43;100356.41;;;7.08;73.43
62152;BME280;48139;47.474;19.034;2023-02-02T09:14:45;100347.75;;;7.08;74.71
62152;BME280;48139;47.474;19.034;2023-02-02T09:17:48;100342.50;;;7.09;72.81
62152;BME280;48139;47.474;19.034;2023-02-02T09:20:51;100342.56;;;7.06;75.52
62152;BME280;48139;47.474;19.034;2023-02-02T09:23:54;100346.41;;;6.96;72.06
62152;BME280;48139;47.474;19.034;2023-02-02T09:26:56;100362.59;;;6.78;70.31
62152;BME280;48139;47.474;19.034;2023-02-02T09:29:59;100364.88;;;6.61;72.67
62152;BME280;48139;47.474;19.034;2023-02-02T09:33:01;100355.56;;;6.54;73.40
62152;BME280;48139;47.474;19.034;2023-02-02T09:36:10;100342.63;;;6.51;74.27
62152;BME280;48139;47.474;19.034;2023-02-02T09:39:14;100350.78;;;6.40;72.68
62152;BME280;48139;47.474;19.034;2023-02-02T09:45:52;100341.44;;;6.33;73.37
62152;BME280;48139;47.474;19.034;2023-02-02T09:49:01;100361.91;;;6.43;75.08
62152;BME280;48139;47.474;19.034;2023-02-02T09:52:13;100346.31;;;6.43;72.13
62152;BME280;48139;47.474;19.034;2023-02-02T09:55:37;100376.34;;;6.55;72.64
62152;BME280;48139;47.474;19.034;2023-02-02T09:58:54;100346.03;;;6.53;68.96
62152;BME280;48139;47.474;19.034;2023-02-02T10:02:42;100371.84;;;6.60;70.11
62152;BME280;48139;47.474;19.034;2023-02-02T10:05:57;100363.50;;;6.77;68.57
62152;BME280;48139;47.474;19.034;2023-02-02T10:12:45;100371.47;;;6.72;68.14
62152;BME280;48139;47.474;19.034;2023-02-02T10:16:03;100367.97;;;6.73;68.27
62152;BME280;48139;47.474;19.034;2023-02-02T10:19:10;100384.53;;;6.71;69.13
62152;BME280;48139;47.474;19.034;2023-02-02T10:22:19;100375.16;;;6.65;69.45
62152;BME280;48139;47.474;19.034;2023-02-02T10:25:26;100388.88;;;6.70;68.68
62152;BME280;48139;47.474;19.034;2023-02-02T10:28:52;100362.06;;;6.68;69.25
62152;BME280;48139;47.474;19.034;2023-02-02T10:32:37;100372.75;;;6.87;69.43
62152;BME280;48139;47.474;19.034;2023-02-02T10:35:48;100332.06;;;6.83;69.55
62152;BME280;48139;47.474;19.034;2023-02-02T10:39:06;100332.97;;;6.82;68.38
62152;BME280;48139;47.474;19.034;2023-02-02T10:45:43;100350.72;;;6.97;72.37
62152;BME280;48139;47.474;19.034;2023-02-02T10:48:47;100340.81;;;7.07;68.77
62152;BME280;48139;47.474;19.034;2023-02-02T10:51:58;100335.81;;;7.01;68.45
62152;BME280;48139;47.474;19.034;2023-02-02T10:55:27;100334.44;;;6.91;71.21
62152;BME280;48139;47.474;19.034;2023-02-02T10:58:42;100336.72;;;7.00;71.63
62152;BME280;48139;47.474;19.034;2023-02-02T11:01:45;100336.63;;;7.03;70.03
62152;BME280;48139;47.474;19.034;2023-02-02T11:04:50;100335.53;;;7.10;70.98
62152;BME280;48139;47.474;19.034;2023-02-02T11:08:30;100351.81;;;7.16;72.95
62152;BME280;48139;47.474;19.034;2023-02-02T11:11:39;100354.81;;;7.31;70.83
62152;BME280;48139;47.474;19.034;2023-02-02T11:17:49;100356.50;;;7.32;70.07
62152;BME280;48139;47.474;19.034;2023-02-02T11:20:51;100355.41;;;7.12;71.01
62152;BME280;48139;47.474;19.034;2023-02-02T11:24:20;100363.94;;;7.17;70.17
62152;BME280;48139;47.474;19.034;2023-02-02T11:27:27;100364.25;;;7.33;69.67
62152;BME280;48139;47.474;19.034;2023-02-02T11:30:33;100359.84;;;7.35;70.23
62152;BME280;48139;47.474;19.034;2023-02-02T11:33:36;100358.03;;;7.37;68.80
62152;BME280;48139;47.474;19.034;2023-02-02T11:36:39;100364.62;;;7.22;71.44
62152;BME280;48139;47.474;19.034;2023-02-02T11:39:43;100366.34;;;7.23;70.55
62152;BME280;48139;47.474;19.034;2023-02-02T11:42:46;100374.06;;;7.25;68.76
62152;BME280;48139;47.474;19.034;2023-02-02T11:46:03;100376.75;;;7.23;70.00
62152;BME280;48139;47.474;19.034;2023-02-02T11:49:15;100395.44;;;7.36;69.96
62152;BME280;48139;47.474;19.034;2023-02-02T11:52:21;100392.84;;;7.36;68.08
62152;BME280;48139;47.474;19.034;2023-02-02T11:55:29;100397.94;;;7.39;69.27
62152;BME280;48139;47.474;19.034;2023-02-02T12:01:48;100402.00;;;7.21;70.75
62152;BME280;48139;47.474;19.034;2023-02-02T12:05:12;100398.00;;;7.11;71.49
62152;BME280;48139;47.474;19.034;2023-02-02T12:08:16;100403.59;;;6.99;72.11
62152;BME280;48139;47.474;19.034;2023-02-02T12:11:39;100401.22;;;6.92;72.83
62152;BME280;48139;47.474;19.034;2023-02-02T12:45:33;100379.06;;;6.51;74.87
62152;BME280;48139;47.474;19.034;2023-02-02T12:56:24;100377.47;;;6.46;78.38
62152;BME280;48139;47.474;19.034;2023-02-02T12:59:45;100378.19;;;6.50;76.49
62152;BME280;48139;47.474;19.034;2023-02-02T13:03:16;100383.97;;;6.61;78.13
62152;BME280;48139;47.474;19.034;2023-02-02T13:10:20;100396.13;;;6.61;79.51
62152;BME280;48139;47.474;19.034;2023-02-02T13:13:32;100397.50;;;6.72;77.18
62152;BME280;48139;47.474;19.034;2023-02-02T13:16:39;100407.91;;;6.72;75.19
62152;BME280;48139;47.474;19.034;2023-02-02T13:19:47;100395.03;;;6.68;75.45
62152;BME280;48139;47.474;19.034;2023-02-02T13:22:57;100405.81;;;6.56;75.94
62152;BME280;48139;47.474;19.034;2023-02-02T13:26:09;100405.91;;;6.53;77.79
62152;BME280;48139;47.474;19.034;2023-02-02T13:29:46;100396.19;;;6.58;76.82
62152;BME280;48139;47.474;19.034;2023-02-02T13:32:57;100410.03;;;6.60;76.65
62152;BME280;48139;47.474;19.034;2023-02-02T13:36:04;100405.72;;;6.59;75.58
62152;BME280;48139;47.474;19.034;2023-02-02T13:39:21;100420.25;;;6.66;75.20
62152;BME280;48139;47.474;19.034;2023-02-02T13:42:31;100411.81;;;6.58;76.22
62152;BME280;48139;47.474;19.034;2023-02-02T13:49:18;100423.84;;;6.62;76.77
62152;BME280;48139;47.474;19.034;2023-02-02T13:56:08;100423.03;;;6.60;76.87
62152;BME280;48139;47.474;19.034;2023-02-02T14:02:30;100411.22;;;6.77;78.31
62152;BME280;48139;47.474;19.034;2023-02-02T14:05:39;100419.53;;;6.88;77.82
62152;BME280;48139;47.474;19.034;2023-02-02T14:08:56;100406.06;;;7.04;75.76
62152;BME280;48139;47.474;19.034;2023-02-02T14:12:06;100425.12;;;7.04;76.70
62152;BME280;48139;47.474;19.034;2023-02-02T14:15:10;100428.53;;;7.06;74.39
62152;BME280;48139;47.474;19.034;2023-02-02T14:25:00;100431.22;;;6.75;76.81
62152;BME280;48139;47.474;19.034;2023-02-02T14:28:09;100426.22;;;6.69;77.65
62152;BME280;48139;47.474;19.034;2023-02-02T14:34:42;100438.31;;;6.70;77.93
62152;BME280;48139;47.474;19.034;2023-02-02T14:37:57;100429.84;;;6.64;77.34
62152;BME280;48139;47.474;19.034;2023-02-02T14:45:37;100426.28;;;6.68;77.84
62152;BME280;48139;47.474;19.034;2023-02-02T14:48:42;100431.28;;;6.74;76.66
62152;BME280;48139;47.474;19.034;2023-02-02T14:51:59;100432.66;;;6.85;75.68
62152;BME280;48139;47.474;19.034;2023-02-02T14:55:03;100435.50;;;6.78;75.82
62152;BME280;48139;47.474;19.034;2023-02-02T14:58:06;100441.72;;;6.74;76.64
62152;BME280;48139;47.474;19.034;2023-02-02T15:01:27;100460.16;;;6.66;76.93
62152;BME280;48139;47.474;19.034;2023-02-02T15:04:30;100444.84;;;6.56;78.50
62152;BME280;48139;47.474;19.034;2023-02-02T15:13:58;100459.50;;;6.29;80.33
62152;BME280;48139;47.474;19.034;2023-02-02T15:20:31;100456.78;;;6.32;80.01
62152;BME280;48139;47.474;19.034;2023-02-02T15:23:41;100459.81;;;6.18;81.51
62152;BME280;48139;47.474;19.034;2023-02-02T15:26:46;100462.69;;;6.07;81.25
62152;BME280;48139;47.474;19.034;2023-02-02T15:29:55;100463.53;;;6.08;82.92
62152;BME280;48139;47.474;19.034;2023-02-02T15:33:05;100471.53;;;6.00;81.00
62152;BME280;48139;47.474;19.034;2023-02-02T15:36:22;100471.78;;;5.91;82.93
62152;BME280;48139;47.474;19.034;2023-02-02T15:39:29;100482.19;;;5.91;83.86
62152;BME280;48139;47.474;19.034;2023-02-02T15:42:41;100492.00;;;5.79;84.64
62152;BME280;48139;47.474;19.034;2023-02-02T15:46:17;100490.19;;;5.82;84.60
62152;BME280;48139;47.474;19.034;2023-02-02T15:49:28;100499.22;;;5.67;87.99
62152;BME280;48139;47.474;19.034;2023-02-02T15:52:44;100505.44;;;5.62;88.44
62152;BME280;48139;47.474;19.034;2023-02-02T15:55:48;100502.75;;;5.65;89.36
62152;BME280;48139;47.474;19.034;2023-02-02T15:58:53;100517.00;;;5.49;89.89
62152;BME280;48139;47.474;19.034;2023-02-02T16:02:28;100513.84;;;5.36;91.48
62152;BME280;48139;47.474;19.034;2023-02-02T16:08:39;100516.81;;;5.19;93.48
62152;BME280;48139;47.474;19.034;2023-02-02T16:11:42;100524.75;;;5.13;93.42
62152;BME280;48139;47.474;19.034;2023-02-02T16:14:49;100524.94;;;5.06;95.89
62152;BME280;48139;47.474;19.034;2023-02-02T16:18:12;100529.44;;;4.96;95.93
62152;BME280;48139;47.474;19.034;2023-02-02T16:21:18;100529.31;;;5.02;96.21
62152;BME280;48139;47.474;19.034;2023-02-02T16:24:41;100526.84;;;4.96;95.56
62152;BME280;48139;47.474;19.034;2023-02-02T16:27:46;100535.56;;;4.94;96.70
62152;BME280;48139;47.474;19.034;2023-02-02T16:30:51;100546.97;;;4.86;97.31
62152;BME280;48139;47.474;19.034;2023-02-02T16:33:54;100547.72;;;4.92;96.80
62152;BME280;48139;47.474;19.034;2023-02-02T16:37:28;100545.94;;;4.94;97.63
62152;BME280;48139;47.474;19.034;2023-02-02T16:40:31;100548.66;;;4.87;97.15
62152;BME280;48139;47.474;19.034;2023-02-02T16:43:36;100560.84;;;4.84;96.89
62152;BME280;48139;47.474;19.034;2023-02-02T16:46:44;100570.62;;;4.71;97.57
62152;BME280;48139;47.474;19.034;2023-02-02T16:49:49;100576.56;;;4.76;96.29
